Portada
METAR-TAF:

METAR-TAF

Aeropuertos :

Aeropuerto Internacional de Damasco

Damasco, Siria

latitud: 33-25N, longitud: 036-31E, altitud: 608 m

Observación

El informe se hizo hace 52 minutos, a las 10:00 UTC
Viento 23 kt del suroeste
Temperatura 29°C
Humedad 33%
Presión 1009 hPa
Visibilidad 10 km o más
Escasas nubes a una altura de 3000 ft
Nubes dispersas a una altura de 10000 ft

METAR: OSDI 231000Z 23023KT 9999 FEW030 SCT100 29/11 Q1009

Hora: 13:52 (10:52 UTC)

Pronóstico

El informe se hizo hace 5 horas y 52 minutos, a las 05:00 UTC
Pronóstico válido del 23 a las 06 UTC al 24 a las 12 UTC
Viento 15 kt del suroeste
Visibilidad 10 km o más
sin nubes por debajo de 1500 m y sin presencia de cumulonimbus.
Temporalmente
del 23 a las 12 UTC al 23 a las 18 UTC
Viento 15 kt del oeste-suroeste con ráfagas de 25 kt

TAF: OSDI 230500Z 2306/2412 22015KT CAVOK TEMPO 2312/2318 25015G25KT

Observaciones y pronósticos meteorológicos de más de 4000 aeropuertos (mensajes METAR y TAF).

Los puntos amarillos y rojos representan las estaciones disponibles.

Ponga el ratón en el punto deseado para ver el nombre de la estación.

Haga clic para ver las observaciones y los pronósticos meteorológicos.

Para cambiar el mapa : haga clic en los botones verdes con una cruz de color negro para hacer un zoom, en el botón verde con un guión para alejar o en las flechas verdes para mapas adyacentes.


METAR-TAF: